Time;durP1;ratioP1;P1;durP2;ratioP2;P2;SDS_P1;SDS_P2;PMS_P1;PMS_P2;Temp;Humidity;BMP_temperature;BMP_pressure;BME280_temperature;BME280_humidity;BME280_pressure;Samples;Min_cycle;Max_cycle;Signal;HPM_P1;HPM_P2
2023/05/22 00:04:46;;;;;;;5.70;3.88;;;12.60;99.90;;;;;;10184524;29;20253;-96
2023/05/22 00:09:49;;;;;;;4.85;3.80;;;12.70;99.90;;;;;;10186582;29;20219;-95
2023/05/22 00:14:55;;;;;;;4.35;3.95;;;12.70;99.90;;;;;;10189687;29;20236;-96
2023/05/22 00:20:09;;;;;;;6.38;4.55;;;12.60;99.90;;;;;;10172860;29;20239;-95
2023/05/22 00:25:14;;;;;;;4.82;4.40;;;12.50;99.90;;;;;;10173790;29;20235;-96
2023/05/22 00:30:19;;;;;;;4.00;3.60;;;12.40;99.90;;;;;;10188769;29;20244;-95
2023/05/22 00:35:23;;;;;;;8.60;5.10;;;12.30;99.90;;;;;;10189499;29;20677;-95
2023/05/22 00:40:28;;;;;;;6.43;4.55;;;12.20;99.90;;;;;;10197671;29;20235;-96
2023/05/22 00:45:31;;;;;;;4.60;3.80;;;12.20;99.90;;;;;;10234622;29;20211;-94
2023/05/22 00:50:33;;;;;;;9.30;5.50;;;12.40;99.90;;;;;;10212527;29;20223;-95
2023/05/22 00:55:36;;;;;;;8.40;4.38;;;12.30;99.90;;;;;;10201050;29;20755;-95
2023/05/22 01:00:41;;;;;;;5.07;4.30;;;12.30;99.90;;;;;;10216313;29;20227;-96
2023/05/22 01:05:44;;;;;;;4.63;4.15;;;12.30;99.90;;;;;;10202190;29;20208;-95
2023/05/22 01:10:59;;;;;;;5.30;4.80;;;12.40;99.90;;;;;;10218217;29;20222;-95
2023/05/22 01:16:19;;;;;;;9.93;4.25;;;12.30;99.90;;;;;;10217627;29;20761;-96
2023/05/22 01:21:31;;;;;;;4.95;4.32;;;12.30;99.90;;;;;;10217993;29;20210;-96
2023/05/22 01:27:02;;;;;;;5.82;4.15;;;12.30;99.90;;;;;;10178664;29;20236;-96
2023/05/22 01:32:08;;;;;;;5.07;4.63;;;12.30;99.90;;;;;;10196090;29;20212;-96
2023/05/22 01:37:13;;;;;;;7.18;4.82;;;12.30;99.90;;;;;;10192880;29;20231;-95
2023/05/22 01:42:17;;;;;;;5.45;4.55;;;12.40;99.90;;;;;;10217193;29;20235;-95
2023/05/22 01:47:21;;;;;;;4.93;4.53;;;12.30;99.90;;;;;;10232520;29;20235;-96
2023/05/22 01:52:36;;;;;;;5.97;4.95;;;12.30;99.90;;;;;;10216636;29;20775;-95
2023/05/22 01:57:58;;;;;;;5.78;4.32;;;12.30;99.90;;;;;;10215880;29;20235;-95
2023/05/22 02:03:10;;;;;;;5.20;4.55;;;12.40;99.90;;;;;;10199670;29;20594;-96
2023/05/22 02:08:14;;;;;;;13.63;5.75;;;12.30;99.90;;;;;;10215270;29;20223;-95
2023/05/22 02:13:18;;;;;;;8.50;4.68;;;12.20;99.90;;;;;;10224544;29;20207;-95
2023/05/22 02:18:28;;;;;;;8.25;5.75;;;12.20;99.90;;;;;;10214982;29;20401;-96
2023/05/22 02:23:31;;;;;;;7.03;4.20;;;12.30;99.90;;;;;;10200138;29;20215;-95
2023/05/22 02:28:34;;;;;;;6.07;4.47;;;12.40;99.90;;;;;;10215453;29;20218;-95
2023/05/22 02:33:37;;;;;;;5.18;4.40;;;12.30;99.90;;;;;;10214449;29;20301;-96
2023/05/22 02:38:39;;;;;;;4.60;3.67;;;12.40;99.90;;;;;;10216159;29;20286;-96
2023/05/22 02:43:42;;;;;;;5.28;4.47;;;12.70;99.90;;;;;;10217431;29;20230;-94
2023/05/22 02:48:45;;;;;;;4.13;3.72;;;12.80;99.90;;;;;;10201550;29;20255;-95
2023/05/22 02:53:47;;;;;;;4.75;4.10;;;12.70;99.90;;;;;;10249629;28;20210;-95
2023/05/22 02:58:50;;;;;;;6.75;4.70;;;12.80;99.90;;;;;;10244168;28;20223;-95
2023/05/22 03:03:53;;;;;;;7.10;5.45;;;12.90;99.90;;;;;;10209338;29;20211;-94
2023/05/22 03:08:56;;;;;;;8.57;5.35;;;12.70;99.90;;;;;;10225328;29;20211;-94
2023/05/22 03:13:59;;;;;;;7.28;5.03;;;12.80;99.90;;;;;;10223982;29;20210;-94
2023/05/22 03:19:09;;;;;;;8.35;5.40;;;12.70;99.90;;;;;;10193583;29;21161;-93
2023/05/22 03:24:12;;;;;;;5.82;4.88;;;12.70;99.90;;;;;;10206331;29;20242;-93
2023/05/22 03:29:15;;;;;;;5.32;4.80;;;12.50;99.90;;;;;;10208163;29;20230;-94
2023/05/22 03:34:21;;;;;;;6.35;5.55;;;12.40;99.90;;;;;;10206506;29;20234;-93
2023/05/22 03:39:24;;;;;;;7.88;5.50;;;12.60;99.90;;;;;;10205710;29;20677;-92
2023/05/22 03:44:34;;;;;;;8.93;6.18;;;12.60;99.90;;;;;;10177032;29;20226;-93
2023/05/22 03:49:37;;;;;;;7.15;6.10;;;12.70;99.90;;;;;;10167227;29;20361;-92
2023/05/22 03:54:40;;;;;;;7.05;5.45;;;12.70;99.90;;;;;;10203547;29;20246;-93
2023/05/22 03:59:42;;;;;;;7.38;5.57;;;12.70;99.90;;;;;;10205796;29;20948;-93
2023/05/22 04:04:46;;;;;;;6.60;5.43;;;12.70;99.90;;;;;;10207638;29;20247;-94
2023/05/22 04:09:48;;;;;;;4.32;3.92;;;12.80;99.90;;;;;;10223160;28;20223;-94
2023/05/22 04:14:51;;;;;;;6.60;5.55;;;12.90;99.90;;;;;;10206019;29;20610;-93
2023/05/22 04:19:53;;;;;;;10.77;7.15;;;13.10;99.90;;;;;;10174274;29;20267;-93
2023/05/22 04:24:56;;;;;;;5.32;4.80;;;13.20;99.90;;;;;;10186824;29;20304;-90
2023/05/22 04:30:01;;;;;;;6.20;5.55;;;13.40;99.90;;;;;;10206929;29;20297;-92
2023/05/22 04:35:04;;;;;;;8.07;6.07;;;13.30;99.90;;;;;;10217106;28;20298;-92
2023/05/22 04:40:08;;;;;;;7.68;5.93;;;13.90;99.90;;;;;;10211653;29;20302;-92
2023/05/22 04:45:12;;;;;;;10.45;6.90;;;14.00;99.90;;;;;;10163634;29;20244;-92
2023/05/22 04:50:15;;;;;;;6.50;5.38;;;14.10;99.90;;;;;;10118284;29;20283;-92
2023/05/22 04:55:18;;;;;;;8.63;5.88;;;14.30;99.90;;;;;;10118831;29;20308;-92
2023/05/22 05:00:25;;;;;;;8.93;6.22;;;14.40;99.90;;;;;;10173075;29;20267;-92
2023/05/22 05:05:27;;;;;;;6.10;5.05;;;14.40;99.90;;;;;;10155708;29;20306;-92
2023/05/22 05:10:30;;;;;;;7.35;5.65;;;14.60;99.90;;;;;;10156223;29;20239;-93
2023/05/22 05:15:33;;;;;;;9.57;6.78;;;14.80;99.90;;;;;;10133896;29;20225;-91
2023/05/22 05:20:37;;;;;;;9.60;5.53;;;14.90;99.90;;;;;;10144047;29;20304;-93
2023/05/22 05:25:40;;;;;;;8.40;5.32;;;15.00;99.90;;;;;;10121377;29;20296;-92
2023/05/22 05:30:43;;;;;;;6.68;4.75;;;15.30;99.90;;;;;;10156559;29;20322;-92
2023/05/22 05:36:04;;;;;;;5.63;5.03;;;15.50;99.90;;;;;;10117766;29;20303;-92
2023/05/22 05:41:07;;;;;;;20.48;5.93;;;15.70;99.90;;;;;;10145498;29;20306;-92
2023/05/22 05:46:11;;;;;;;9.95;4.70;;;15.80;99.90;;;;;;10193917;29;20743;-93
2023/05/22 05:51:15;;;;;;;4.97;4.43;;;16.00;99.90;;;;;;10225702;29;20219;-96
2023/05/22 05:56:19;;;;;;;7.30;4.60;;;16.10;99.90;;;;;;10249877;29;20242;-96
2023/05/22 06:01:25;;;;;;;7.47;4.80;;;16.40;99.90;;;;;;10249910;29;20234;-96
2023/05/22 06:06:38;;;;;;;8.68;5.22;;;16.50;99.90;;;;;;10233973;29;20211;-96
2023/05/22 06:11:49;;;;;;;13.38;4.47;;;16.70;98.80;;;;;;10232839;29;20211;-88
2023/05/22 06:16:52;;;;;;;11.05;4.10;;;16.90;97.90;;;;;;10207458;29;20301;-88
2023/05/22 06:21:55;;;;;;;12.75;4.43;;;17.10;98.00;;;;;;10204496;29;20270;-88
2023/05/22 06:27:00;;;;;;;4.75;4.35;;;17.30;96.90;;;;;;10207779;29;20242;-88
2023/05/22 06:32:04;;;;;;;11.18;3.63;;;17.50;95.50;;;;;;10204534;29;20645;-89
2023/05/22 06:37:07;;;;;;;8.70;4.05;;;17.70;95.30;;;;;;10208851;29;20254;-88
2023/05/22 06:42:14;;;;;;;8.85;4.60;;;17.90;93.70;;;;;;10180220;29;20334;-87
2023/05/22 06:47:36;;;;;;;9.32;3.78;;;;;;;;;;10198140;29;20266;-87
2023/05/22 06:52:38;;;;;;;8.43;3.08;;;18.30;93.30;;;;;;10209672;29;20685;-88
2023/05/22 06:57:43;;;;;;;4.40;3.60;;;18.70;92.60;;;;;;10207887;29;20258;-88
2023/05/22 07:02:49;;;;;;;6.93;3.47;;;18.90;90.30;;;;;;10193973;29;20727;-88
2023/05/22 07:08:07;;;;;;;6.90;3.42;;;19.10;89.60;;;;;;10186122;29;20250;-88
2023/05/22 07:13:11;;;;;;;6.10;3.13;;;19.30;87.50;;;;;;10183469;29;21055;-89
2023/05/22 07:18:14;;;;;;;7.05;3.40;;;19.80;80.10;;;;;;10184449;29;20330;-88
2023/05/22 07:23:17;;;;;;;7.22;4.18;;;19.90;86.40;;;;;;10223230;28;20250;-88
2023/05/22 07:28:20;;;;;;;6.28;3.40;;;20.10;81.10;;;;;;10208912;29;20215;-88
2023/05/22 07:33:29;;;;;;;4.25;2.97;;;20.30;79.10;;;;;;10208081;29;20882;-88
2023/05/22 07:38:32;;;;;;;3.78;3.20;;;20.50;71.40;;;;;;10207563;29;20270;-88
2023/05/22 07:43:37;;;;;;;6.88;2.92;;;20.80;79.40;;;;;;10208831;29;20255;-88
2023/05/22 07:48:40;;;;;;;3.42;2.80;;;20.90;76.20;;;;;;10225775;28;20247;-88
2023/05/22 07:53:44;;;;;;;9.57;3.38;;;21.10;67.50;;;;;;10186904;29;20246;-89
2023/05/22 07:58:47;;;;;;;3.47;2.63;;;21.20;73.00;;;;;;10193045;29;20298;-89
2023/05/22 08:03:53;;;;;;;6.07;2.83;;;21.40;63.80;;;;;;10204972;29;20708;-88
2023/05/22 08:08:56;;;;;;;7.18;2.80;;;21.50;54.00;;;;;;10167410;29;20314;-88
2023/05/22 08:13:58;;;;;;;5.38;3.17;;;21.70;57.80;;;;;;10168016;29;20239;-89
2023/05/22 08:19:01;;;;;;;4.72;2.97;;;21.80;59.10;;;;;;10174934;29;20258;-88
2023/05/22 08:24:05;;;;;;;4.70;2.92;;;21.80;52.40;;;;;;10171898;29;20251;-89
2023/05/22 08:29:08;;;;;;;4.20;2.58;;;22.10;59.20;;;;;;10193128;29;20250;-89
2023/05/22 08:34:10;;;;;;;6.15;2.72;;;22.20;59.00;;;;;;10203116;29;20231;-89
2023/05/22 08:39:13;;;;;;;3.75;2.67;;;22.20;44.80;;;;;;10202863;29;20266;-89
2023/05/22 08:44:19;;;;;;;5.30;3.00;;;22.20;52.80;;;;;;10203800;29;20243;-90
2023/05/22 08:49:23;;;;;;;4.28;2.42;;;22.30;46.60;;;;;;10205406;29;20697;-89
2023/05/22 08:54:26;;;;;;;2.63;2.42;;;22.40;44.70;;;;;;10204979;29;20255;-90
2023/05/22 08:59:30;;;;;;;7.25;1.88;;;22.40;56.70;;;;;;10204514;29;20271;-90
2023/05/22 09:04:32;;;;;;;2.95;2.58;;;22.60;43.90;;;;;;10204947;29;20231;-89
2023/05/22 09:09:38;;;;;;;10.02;3.00;;;22.60;50.60;;;;;;10205393;29;20310;-88
2023/05/22 09:14:44;;;;;;;3.58;2.80;;;22.60;33.00;;;;;;10204126;29;20309;-89
2023/05/22 09:19:47;;;;;;;2.95;2.40;;;22.70;49.10;;;;;;10202605;29;20255;-90
2023/05/22 09:24:49;;;;;;;3.25;2.50;;;22.80;47.70;;;;;;10212096;29;20239;-89
2023/05/22 09:29:55;;;;;;;4.70;2.30;;;22.90;46.20;;;;;;10211189;29;20242;-88
2023/05/22 09:35:03;;;;;;;4.28;2.70;;;22.80;41.50;;;;;;10210810;29;20282;-88
2023/05/22 09:40:09;;;;;;;3.80;2.55;;;22.80;48.10;;;;;;10191072;29;20262;-89
2023/05/22 09:45:12;;;;;;;4.00;2.22;;;22.80;48.20;;;;;;10198294;29;20295;-89
2023/05/22 09:50:16;;;;;;;3.58;2.88;;;22.80;48.90;;;;;;10209627;29;20250;-88
2023/05/22 09:55:22;;;;;;;3.78;2.22;;;22.60;29.10;;;;;;10194984;29;20270;-89
2023/05/22 10:00:27;;;;;;;3.17;2.58;;;22.60;42.80;;;;;;10199672;29;20334;-89
2023/05/22 10:05:31;;;;;;;2.28;2.08;;;22.70;44.60;;;;;;10203867;29;20293;-89
2023/05/22 10:10:36;;;;;;;2.55;2.35;;;22.80;45.60;;;;;;10207797;29;20294;-89
2023/05/22 10:15:41;;;;;;;2.72;2.35;;;22.80;44.70;;;;;;10185123;29;20216;-89
2023/05/22 10:20:47;;;;;;;2.58;2.17;;;22.90;43.60;;;;;;10191078;29;20322;-88
2023/05/22 10:25:51;;;;;;;3.45;2.58;;;23.00;45.90;;;;;;10170341;29;20298;-89
2023/05/22 10:31:08;;;;;;;3.35;2.78;;;23.10;43.80;;;;;;10195280;29;20270;-89
2023/05/22 10:37:02;;;;;;;3.03;2.30;;;23.20;36.60;;;;;;10190059;29;20246;-88
2023/05/22 10:42:18;;;;;;;2.55;2.08;;;23.30;40.10;;;;;;10189941;29;20692;-89
2023/05/22 10:47:21;;;;;;;7.07;2.53;;;23.40;42.40;;;;;;10190216;29;20247;-90
2023/05/22 10:52:24;;;;;;;2.33;2.13;;;23.20;41.30;;;;;;10188143;29;20266;-89
2023/05/22 10:57:35;;;;;;;3.58;2.70;;;23.10;44.00;;;;;;10189677;29;20701;-89
2023/05/22 11:02:42;;;;;;;4.70;1.98;;;23.20;35.50;;;;;;10187879;29;20415;-89
2023/05/22 11:07:49;;;;;;;2.90;2.60;;;23.10;43.00;;;;;;10186240;29;20239;-89
2023/05/22 11:13:11;;;;;;;4.15;2.25;;;23.00;43.40;;;;;;10200286;29;20250;-89
2023/05/22 11:18:13;;;;;;;2.90;2.38;;;22.90;35.10;;;;;;10204920;29;20239;-89
2023/05/22 11:23:18;;;;;;;3.05;1.92;;;22.90;39.50;;;;;;10216200;29;20649;-96
2023/05/22 11:28:22;;;;;;;2.72;2.45;;;23.00;30.00;;;;;;10227978;29;20627;-95
2023/05/22 11:33:26;;;;;;;3.45;2.42;;;23.00;31.40;;;;;;10224987;29;20207;-96
2023/05/22 11:38:30;;;;;;;5.00;2.70;;;23.00;33.40;;;;;;10226219;29;20215;-96
2023/05/22 11:43:35;;;;;;;6.75;3.10;;;22.90;28.90;;;;;;10245951;28;20227;-96
2023/05/22 11:48:42;;;;;;;5.45;2.30;;;22.90;28.00;;;;;;10255144;28;20235;-96
2023/05/22 11:53:47;;;;;;;3.40;2.95;;;23.00;26.20;;;;;;10243240;29;20218;-96
2023/05/22 11:58:57;;;;;;;4.43;2.33;;;22.90;27.80;;;;;;10247655;29;20215;-96
2023/05/22 12:04:09;;;;;;;3.78;3.08;;;23.00;25.40;;;;;;10235313;29;20195;-96
2023/05/22 12:09:15;;;;;;;6.82;2.90;;;23.10;25.30;;;;;;10265600;28;20226;-96
2023/05/22 12:14:27;;;;;;;8.75;2.67;;;23.10;28.70;;;;;;10200485;29;20254;-93
2023/05/22 12:19:31;;;;;;;8.30;3.00;;;23.10;26.50;;;;;;10208203;29;20282;-96
2023/05/22 12:24:41;;;;;;;23.52;3.20;;;23.00;28.50;;;;;;10207105;29;20218;-95
2023/05/22 12:29:43;;;;;;;7.07;2.60;;;23.10;27.20;;;;;;10207069;29;20215;-96
2023/05/22 12:34:48;;;;;;;3.38;2.55;;;23.10;26.40;;;;;;10180931;29;20240;-96
2023/05/22 12:39:55;;;;;;;3.88;2.58;;;23.20;23.80;;;;;;10183349;29;20262;-96
2023/05/22 12:44:59;;;;;;;6.25;2.92;;;23.40;20.60;;;;;;10211834;29;20243;-96
2023/05/22 12:50:02;;;;;;;5.38;3.28;;;23.50;29.70;;;;;;10202109;29;20290;-96
2023/05/22 12:55:05;;;;;;;8.88;2.88;;;23.60;30.00;;;;;;10208099;29;20652;-95
2023/05/22 13:00:08;;;;;;;3.15;2.00;;;23.60;29.30;;;;;;10217186;29;20266;-95
2023/05/22 13:05:11;;;;;;;4.38;2.75;;;23.70;30.10;;;;;;10230952;29;20211;-96
2023/05/22 13:10:15;;;;;;;3.80;2.60;;;23.70;20.50;;;;;;10248422;29;20226;-96
2023/05/22 13:15:20;;;;;;;3.97;3.03;;;23.80;27.80;;;;;;10248260;28;20202;-95
2023/05/22 13:20:26;;;;;;;2.53;2.30;;;23.80;31.40;;;;;;10262503;28;20251;-96
2023/05/22 13:26:10;;;;;;;8.30;2.38;;;23.80;27.20;;;;;;10169569;23;20311;-84
2023/05/22 13:31:12;;;;;;;2.85;2.55;;;23.90;27.30;;;;;;10171937;29;20243;-84
2023/05/22 13:36:15;;;;;;;4.68;2.50;;;23.90;28.40;;;;;;10171860;29;20867;-83
2023/05/22 13:41:18;;;;;;;6.97;3.88;;;23.90;30.00;;;;;;10155552;29;20259;-82
2023/05/22 13:46:21;;;;;;;2.35;2.00;;;24.00;29.40;;;;;;10172116;29;20235;-83
2023/05/22 13:51:24;;;;;;;3.88;2.70;;;24.00;29.60;;;;;;10132421;29;20709;-83
2023/05/22 13:56:26;;;;;;;2.55;2.22;;;24.00;29.80;;;;;;10147888;29;20251;-85
2023/05/22 14:01:29;;;;;;;3.97;1.83;;;24.00;30.40;;;;;;10149650;29;20330;-86
2023/05/22 14:06:31;;;;;;;2.97;2.08;;;24.10;24.50;;;;;;10171526;29;20248;-87
2023/05/22 14:11:34;;;;;;;4.00;2.38;;;24.10;25.30;;;;;;10170543;29;20243;-85
2023/05/22 14:16:37;;;;;;;2.75;2.13;;;24.00;24.10;;;;;;10147441;29;20224;-86
2023/05/22 14:21:40;;;;;;;2.55;2.13;;;24.00;24.90;;;;;;10156793;29;20271;-86
2023/05/22 14:26:43;;;;;;;3.47;2.40;;;23.90;27.60;;;;;;10210129;29;20287;-84
2023/05/22 14:31:47;;;;;;;4.10;2.15;;;23.90;24.90;;;;;;10206792;29;20242;-85
2023/05/22 14:36:55;;;;;;;3.28;2.55;;;23.90;27.00;;;;;;10207396;29;20246;-85
2023/05/22 14:41:57;;;;;;;5.65;2.45;;;23.90;28.30;;;;;;10208837;29;20266;-85
2023/05/22 14:47:00;;;;;;;12.15;2.78;;;23.90;29.20;;;;;;10201265;23;20858;-95
2023/05/22 14:52:03;;;;;;;7.03;2.33;;;23.90;22.70;;;;;;10175919;29;20216;-96
2023/05/22 14:57:05;;;;;;;3.63;2.95;;;23.80;20.00;;;;;;10173960;29;20240;-93
2023/05/22 15:02:08;;;;;;;3.60;2.67;;;23.80;20.00;;;;;;10172590;29;20287;-95
2023/05/22 15:07:11;;;;;;;6.00;2.75;;;23.80;22.60;;;;;;10156663;29;20271;-94
2023/05/22 15:12:13;;;;;;;9.60;2.83;;;23.70;20.40;;;;;;10189368;29;20215;-94
2023/05/22 15:17:16;;;;;;;4.10;2.20;;;23.60;23.60;;;;;;10171449;29;20609;-93
2023/05/22 15:22:18;;;;;;;5.30;2.88;;;23.60;26.00;;;;;;10171345;29;20270;-94
2023/05/22 15:27:21;;;;;;;3.13;2.72;;;23.50;26.40;;;;;;10172399;29;20204;-93
2023/05/22 15:32:24;;;;;;;3.83;2.92;;;23.50;23.60;;;;;;10171252;29;20280;-94
2023/05/22 15:37:29;;;;;;;8.93;2.92;;;23.40;25.60;;;;;;10171509;29;20240;-94
2023/05/22 15:42:33;;;;;;;4.63;3.15;;;23.30;23.40;;;;;;10173479;29;20322;-95
2023/05/22 15:47:36;;;;;;;5.03;2.80;;;23.30;28.30;;;;;;10171873;29;20264;-95
2023/05/22 15:52:39;;;;;;;4.90;2.40;;;23.30;26.80;;;;;;10172419;29;20216;-94
2023/05/22 15:57:41;;;;;;;11.25;3.10;;;23.40;28.90;;;;;;10171213;29;20212;-94
2023/05/22 16:02:44;;;;;;;4.57;2.85;;;23.40;26.10;;;;;;10170799;29;20286;-96
2023/05/22 16:07:47;;;;;;;4.95;3.30;;;23.30;27.70;;;;;;10175457;29;20208;-96
2023/05/22 16:12:53;;;;;;;3.33;2.75;;;23.10;28.90;;;;;;10220715;29;20211;-96
2023/05/22 16:17:56;;;;;;;7.55;4.53;;;23.00;27.90;;;;;;10198770;29;20219;-96
2023/05/22 16:22:59;;;;;;;23.27;4.28;;;23.00;26.30;;;;;;10174177;29;20239;-96
2023/05/22 16:28:03;;;;;;;2.55;2.35;;;23.00;27.60;;;;;;10174222;29;20263;-96
2023/05/22 16:33:07;;;;;;;7.00;3.53;;;23.00;30.00;;;;;;10215287;29;20216;-96
2023/05/22 16:38:13;;;;;;;4.25;3.15;;;22.90;29.00;;;;;;10219921;29;20228;-96
2023/05/22 16:43:19;;;;;;;4.25;3.35;;;22.80;27.30;;;;;;10212580;29;20272;-96
2023/05/22 16:48:28;;;;;;;4.80;2.72;;;22.80;27.30;;;;;;10212231;29;20264;-96
2023/05/22 16:53:34;;;;;;;4.82;3.25;;;22.70;31.10;;;;;;10208953;29;20215;-96
2023/05/22 16:58:46;;;;;;;4.45;2.83;;;22.70;31.40;;;;;;10214950;29;20216;-96
2023/05/22 17:03:53;;;;;;;4.85;2.85;;;22.60;28.10;;;;;;10202999;29;20235;-88
2023/05/22 17:08:56;;;;;;;47.95;6.85;;;22.60;26.20;;;;;;10309455;23;20248;-96
2023/05/22 17:14:06;;;;;;;9.15;3.05;;;22.50;28.80;;;;;;10215427;23;20231;-87
2023/05/22 17:19:08;;;;;;;9.18;3.67;;;22.40;27.60;;;;;;10195368;29;20255;-90
2023/05/22 17:24:12;;;;;;;4.05;2.95;;;22.20;30.20;;;;;;10211849;29;20258;-88
2023/05/22 17:29:16;;;;;;;9.38;3.83;;;22.20;32.20;;;;;;10192437;29;20696;-87
2023/05/22 17:34:18;;;;;;;5.70;3.38;;;22.10;43.50;;;;;;10209127;29;20247;-87
2023/05/22 17:39:21;;;;;;;7.85;3.85;;;22.10;59.30;;;;;;9484205;29;10000640;-87
2023/05/22 17:44:24;;;;;;;4.55;3.10;;;22.00;73.10;;;;;;10185457;29;20510;-87
2023/05/22 17:49:27;;;;;;;7.80;3.65;;;21.80;67.70;;;;;;10207962;29;20263;-87
2023/05/22 17:54:33;;;;;;;6.10;3.35;;;21.60;82.90;;;;;;10207010;29;20294;-87
2023/05/22 17:59:36;;;;;;;8.77;2.90;;;21.40;85.90;;;;;;10190731;29;20251;-87
2023/05/22 18:04:41;;;;;;;9.63;4.00;;;21.30;83.10;;;;;;10208308;29;20255;-87
2023/05/22 18:09:44;;;;;;;9.13;3.53;;;21.10;89.60;;;;;;10208611;29;20251;-87
2023/05/22 18:14:46;;;;;;;5.70;3.42;;;20.90;95.00;;;;;;10186043;29;20285;-87
2023/05/22 18:19:49;;;;;;;25.08;4.70;;;20.80;97.80;;;;;;10190639;29;20259;-88
2023/05/22 18:24:51;;;;;;;7.13;3.38;;;20.50;97.10;;;;;;10200040;29;20274;-88
2023/05/22 18:29:55;;;;;;;7.00;3.97;;;20.30;98.60;;;;;;10170835;29;20239;-88
2023/05/22 18:34:59;;;;;;;4.53;3.38;;;20.10;99.90;;;;;;10172974;29;20303;-89
2023/05/22 18:40:02;;;;;;;6.68;3.47;;;19.90;99.90;;;;;;10171004;29;20246;-88
2023/05/22 18:45:06;;;;;;;7.95;3.42;;;19.70;99.90;;;;;;10188360;29;20309;-89
2023/05/22 18:50:09;;;;;;;5.72;3.22;;;19.20;99.90;;;;;;10190307;29;20246;-88
2023/05/22 18:55:11;;;;;;;4.70;3.25;;;19.20;99.90;;;;;;10205300;29;20294;-91
2023/05/22 19:00:14;;;;;;;5.75;3.00;;;18.90;99.90;;;;;;10205667;29;20238;-89
2023/05/22 19:05:17;;;;;;;8.25;4.25;;;18.50;99.90;;;;;;10206198;29;20623;-89
2023/05/22 19:10:19;;;;;;;10.70;3.65;;;18.30;98.50;;;;;;10204594;29;20238;-89
2023/05/22 19:15:22;;;;;;;5.00;3.25;;;18.00;98.40;;;;;;10202806;29;20325;-90
2023/05/22 19:20:25;;;;;;;5.28;3.65;;;17.80;99.10;;;;;;10189607;29;20696;-88
2023/05/22 19:25:27;;;;;;;10.32;4.15;;;17.70;99.90;;;;;;10191979;29;20270;-87
2023/05/22 19:30:30;;;;;;;5.70;3.50;;;17.50;99.90;;;;;;10207670;29;20238;-88
2023/05/22 19:35:32;;;;;;;4.63;3.63;;;17.40;99.90;;;;;;10177793;29;20704;-89
2023/05/22 19:40:35;;;;;;;13.77;4.30;;;17.40;99.90;;;;;;10172216;29;20247;-89
2023/05/22 19:45:38;;;;;;;6.75;4.32;;;17.30;99.90;;;;;;10183577;29;20246;-89
2023/05/22 19:50:41;;;;;;;7.32;3.55;;;;;;;;;;10153550;29;20267;-89
2023/05/22 19:55:44;;;;;;;10.93;6.45;;;16.10;98.60;;;;;;10180620;29;20318;-88
2023/05/22 20:00:47;;;;;;;21.02;11.93;;;15.70;94.80;;;;;;10183048;29;20687;-89
2023/05/22 20:05:53;;;;;;;11.73;6.65;;;15.50;95.50;;;;;;10189136;29;20262;-88
2023/05/22 20:10:56;;;;;;;9.35;5.68;;;15.20;96.50;;;;;;10194300;29;20875;-88
2023/05/22 20:16:02;;;;;;;15.73;5.75;;;14.80;97.30;;;;;;10187009;29;20804;-88
2023/05/22 20:21:05;;;;;;;9.43;5.82;;;14.40;98.30;;;;;;10162543;29;20247;-89
2023/05/22 20:26:08;;;;;;;11.50;5.25;;;14.20;98.60;;;;;;10195090;29;20632;-89
2023/05/22 20:31:11;;;;;;;14.88;5.18;;;14.20;98.70;;;;;;10176952;29;20239;-89
2023/05/22 20:36:15;;;;;;;11.25;4.97;;;;;;;;;;10186832;29;20238;-89
2023/05/22 20:41:18;;;;;;;6.45;4.55;;;13.60;99.90;;;;;;10176020;29;20282;-90
2023/05/22 20:46:21;;;;;;;15.15;5.65;;;13.40;99.90;;;;;;10192191;29;20231;-90
2023/05/22 20:56:33;;;;;;;6.60;4.47;;;13.20;99.90;;;;;;10160190;29;20263;-88
2023/05/22 21:01:38;;;;;;;5.90;4.00;;;13.00;99.90;;;;;;10158873;29;20259;-88
2023/05/22 21:06:41;;;;;;;7.22;5.30;;;13.30;99.90;;;;;;10140207;29;20243;-89
2023/05/22 21:11:43;;;;;;;8.25;5.13;;;13.50;99.90;;;;;;10141700;29;20275;-88
2023/05/22 21:16:46;;;;;;;5.88;4.75;;;13.80;99.90;;;;;;10156643;29;20244;-88
2023/05/22 21:21:48;;;;;;;6.25;4.25;;;14.00;99.90;;;;;;10169370;29;20310;-88
2023/05/22 21:26:51;;;;;;;6.40;5.70;;;14.20;99.90;;;;;;10170842;29;20290;-88
2023/05/22 21:31:53;;;;;;;5.90;5.07;;;14.10;99.90;;;;;;10170642;29;20247;-89
2023/05/22 21:36:56;;;;;;;5.10;4.60;;;13.90;99.90;;;;;;10186539;29;20337;-89
2023/05/22 21:41:59;;;;;;;6.90;5.03;;;13.90;99.90;;;;;;10176077;29;20700;-89
2023/05/22 21:47:02;;;;;;;7.20;5.32;;;13.60;99.90;;;;;;10210718;29;20238;-89
2023/05/22 21:52:04;;;;;;;6.60;5.05;;;13.60;99.90;;;;;;10189573;29;20294;-88
2023/05/22 21:57:07;;;;;;;7.75;5.57;;;13.60;99.90;;;;;;10165791;29;20772;-88
2023/05/22 22:02:10;;;;;;;6.00;4.93;;;13.60;99.90;;;;;;10179860;29;20287;-88
2023/05/22 22:07:12;;;;;;;6.93;4.47;;;13.60;99.90;;;;;;10181677;29;20239;-88
2023/05/22 22:12:15;;;;;;;6.60;4.72;;;13.50;99.90;;;;;;10173774;29;20250;-88
2023/05/22 22:17:22;;;;;;;6.28;5.00;;;13.60;99.90;;;;;;10188706;29;20239;-88
2023/05/22 22:22:25;;;;;;;7.05;4.88;;;13.20;99.90;;;;;;10173492;29;20266;-88
2023/05/22 22:27:27;;;;;;;7.07;6.07;;;13.20;99.90;;;;;;10174778;29;20341;-88
2023/05/22 22:32:30;;;;;;;8.38;5.55;;;13.10;99.90;;;;;;10210055;29;20242;-88
2023/05/22 22:37:32;;;;;;;7.85;6.35;;;13.00;99.90;;;;;;10211681;29;20301;-88
2023/05/22 22:42:35;;;;;;;5.60;4.60;;;13.30;99.90;;;;;;10170253;29;20334;-88
2023/05/22 22:47:38;;;;;;;7.03;5.50;;;13.20;99.90;;;;;;10171429;29;20287;-88
2023/05/22 22:52:44;;;;;;;7.28;6.00;;;13.30;99.90;;;;;;10169580;29;20327;-88
2023/05/22 22:57:48;;;;;;;7.63;5.80;;;12.90;99.90;;;;;;10174880;29;20252;-88
2023/05/22 23:02:51;;;;;;;6.32;5.72;;;13.00;99.90;;;;;;10185648;29;20734;-88
2023/05/22 23:07:54;;;;;;;6.22;5.60;;;12.80;99.90;;;;;;10192611;29;20283;-88
2023/05/22 23:12:58;;;;;;;8.15;5.78;;;12.70;99.90;;;;;;10181552;29;20732;-88
2023/05/22 23:18:01;;;;;;;8.38;6.22;;;12.70;99.90;;;;;;10190816;29;20687;-88
2023/05/22 23:23:03;;;;;;;7.32;6.28;;;12.60;99.90;;;;;;10186677;29;20263;-88
2023/05/22 23:28:06;;;;;;;9.50;6.70;;;12.30;99.90;;;;;;10183116;29;20243;-88
2023/05/22 23:33:09;;;;;;;7.15;6.30;;;12.50;99.90;;;;;;10172061;29;20306;-88
2023/05/22 23:38:11;;;;;;;8.00;6.78;;;12.40;99.90;;;;;;10206900;29;20246;-88
2023/05/22 23:43:14;;;;;;;6.28;5.63;;;12.50;99.90;;;;;;10206275;29;20296;-88
2023/05/22 23:48:17;;;;;;;10.43;6.88;;;12.50;99.90;;;;;;10190624;29;20243;-88
2023/05/22 23:53:19;;;;;;;7.15;6.05;;;12.60;99.90;;;;;;10206365;29;20325;-88
2023/05/22 23:58:22;;;;;;;8.52;7.18;;;12.50;99.90;;;;;;10190119;29;20297;-88
